KJWN

John C Tune Airport

Nashville, Tennessee, USA
METAR KJWN 141315Z AUTO 00000KT 10SM CLR 22/18 A3005 RMK A01
Observed Flight Rules
Aug-14 @ 13:15 UTC (27 minutes ago) Visual Flight Rules
Visibility Clouds
10 miles
  • Clear skies
Temperatures Readings
Current 22°C / 72°F
Dewpoint 18°C / 64°F
Humidity 78%
Altimeter 30.05" Hg
Pressure 1018 hPa
Elevation 151
METAR KJWN 141315Z AUTO 00000KT 10SM CLR 22/18 A3005 RMK A01
Observed Flight Rules
Aug-14 @ 13:15 UTC
(27 minutes ago)
VFR
Clouds
  • Clear skies
Temperature Dewpoint
22°C / 72°F 18°C / 64°F
Humidity Altimeter Pressure
78% 30.05" Hg 1018 hPa